createdAt,value
2022-09-07T00:01:40.819Z,100999.13
2022-09-07T00:04:09.593Z,100993.97
2022-09-07T00:06:37.438Z,100996.31
2022-09-07T00:09:05.659Z,101008.72
2022-09-07T00:11:33.610Z,100998.78
2022-09-07T00:14:02.751Z,101006.47
2022-09-07T00:16:31.433Z,101012.25
2022-09-07T00:19:01.394Z,101010.69
2022-09-07T00:21:29.384Z,101023.94
2022-09-07T00:23:57.545Z,101017.47
2022-09-07T00:26:26.718Z,101023.22
2022-09-07T00:28:57.661Z,101010.47
2022-09-07T00:31:27.108Z,101005.94
2022-09-07T00:33:55.321Z,101006.28
2022-09-07T00:36:23.685Z,100998.97
2022-09-07T00:38:51.476Z,100993.75
2022-09-07T00:41:19.886Z,100977.41
2022-09-07T00:43:49.096Z,100971.34
2022-09-07T00:46:17.520Z,100957.72
2022-09-07T00:48:50.384Z,100958.28
2022-09-07T00:51:38.047Z,100931.66
2022-09-07T00:54:08.786Z,100923.00
2022-09-07T00:56:38.639Z,100916.72
2022-09-07T00:59:07.195Z,100918.78
2022-09-07T01:01:35.466Z,100904.16
2022-09-07T01:04:07.990Z,100899.56
2022-09-07T01:06:39.266Z,100896.72
2022-09-07T01:09:11.435Z,100902.19
2022-09-07T01:11:39.956Z,100906.63
2022-09-07T01:14:10.053Z,100902.53
2022-09-07T01:16:44.870Z,100892.19
2022-09-07T01:19:27.736Z,100883.22
2022-09-07T01:22:04.911Z,100876.13
2022-09-07T01:24:41.800Z,100853.41
2022-09-07T01:27:37.163Z,100852.78
2022-09-07T01:30:08.595Z,100850.38
2022-09-07T01:32:44.995Z,100849.72
2022-09-07T01:35:15.314Z,100848.19
2022-09-07T01:37:55.049Z,100848.59
2022-09-07T01:40:31.423Z,100843.22
2022-09-07T01:43:01.734Z,100838.03
2022-09-07T01:45:33.030Z,100841.03
2022-09-07T01:48:04.011Z,100848.72
2022-09-07T01:50:34.971Z,100849.09
2022-09-07T01:53:04.242Z,100852.06
2022-09-07T01:55:36.205Z,100845.88
2022-09-07T01:58:09.206Z,100854.56
2022-09-07T02:00:39.825Z,100857.34
2022-09-07T02:03:12.105Z,100850.03
2022-09-07T02:05:43.634Z,100830.78
2022-09-07T02:08:16.885Z,100840.16
2022-09-07T02:10:50.557Z,100840.16
2022-09-07T02:13:21.442Z,100841.03
2022-09-07T02:16:14.597Z,100839.97
2022-09-07T02:18:46.641Z,100828.88
2022-09-07T02:21:17.132Z,100829.72
2022-09-07T02:23:48.065Z,100837.91
2022-09-07T02:26:18.341Z,100832.34
2022-09-07T02:28:46.546Z,100828.53
2022-09-07T02:31:17.423Z,100828.53
2022-09-07T02:33:47.473Z,100818.09
2022-09-07T02:36:17.626Z,100826.41
2022-09-07T02:40:11.791Z,100810.63
2022-09-07T02:45:58.025Z,100810.38
2022-09-07T02:48:28.269Z,100810.38
2022-09-07T02:51:02.457Z,100793.72
2022-09-07T02:53:46.661Z,100788.16
2022-09-07T02:56:28.268Z,100797.38
2022-09-07T02:59:02.153Z,100802.91
2022-09-07T03:01:35.021Z,100800.38
2022-09-07T03:04:26.585Z,100800.38
2022-09-07T03:07:09.723Z,100801.19
2022-09-07T03:09:40.753Z,100796.72
2022-09-07T03:12:09.122Z,100794.13
2022-09-07T03:14:41.415Z,100792.41
2022-09-07T03:17:27.473Z,100793.47
2022-09-07T03:19:57.484Z,100800.03
2022-09-07T03:22:25.284Z,100793.63
2022-09-07T03:25:04.342Z,100804.06
2022-09-07T03:27:33.615Z,100805.16
2022-09-07T03:30:02.096Z,100800.66
2022-09-07T03:35:32.242Z,100809.56
2022-09-07T03:38:00.189Z,100804.19
2022-09-07T03:40:27.917Z,100799.72
2022-09-07T03:42:55.881Z,100803.56
2022-09-07T03:45:24.482Z,100799.03
2022-09-07T03:47:59.878Z,100810.34
2022-09-07T03:50:30.437Z,100806.72
2022-09-07T03:53:00.772Z,100806.91
2022-09-07T03:55:31.651Z,100796.19
2022-09-07T03:57:59.869Z,100802.81
2022-09-07T04:00:29.018Z,100797.44
2022-09-07T04:03:23.118Z,100794.00
2022-09-07T04:06:20.481Z,100796.09
2022-09-07T04:09:04.697Z,100798.00
2022-09-07T04:11:36.968Z,100797.38
2022-09-07T04:14:22.144Z,100788.19
2022-09-07T04:17:28.447Z,100794.97
2022-09-07T04:19:56.587Z,100796.88
2022-09-07T04:22:31.984Z,100795.16
2022-09-07T04:25:01.147Z,100792.56
2022-09-07T04:27:30.307Z,100797.47
2022-09-07T04:29:58.119Z,100798.53
2022-09-07T04:32:28.960Z,100787.63
2022-09-07T04:34:56.849Z,100777.56
2022-09-07T04:37:24.635Z,100782.44
2022-09-07T04:39:52.656Z,100788.22
2022-09-07T04:42:21.823Z,100786.50
2022-09-07T04:44:50.076Z,100787.53
2022-09-07T04:47:17.742Z,100788.59
2022-09-07T04:49:45.422Z,100779.41
2022-09-07T04:52:16.432Z,100772.13
2022-09-07T04:54:49.531Z,100777.00
2022-09-07T04:57:18.212Z,100781.50
2022-09-07T04:59:47.347Z,100785.34
2022-09-07T05:02:15.194Z,100780.88
2022-09-07T05:04:42.977Z,100778.91
2022-09-07T05:07:10.726Z,100783.63
2022-09-07T05:09:38.460Z,100785.56
2022-09-07T05:12:06.471Z,100784.69
2022-09-07T05:14:34.163Z,100786.59
2022-09-07T05:17:04.526Z,100790.44
2022-09-07T05:19:32.218Z,100790.44
2022-09-07T05:21:59.946Z,100783.81
2022-09-07T05:24:27.973Z,100782.97
2022-09-07T05:50:30.322Z,100786.91
2022-09-07T05:53:00.933Z,100783.06
2022-09-07T05:55:30.398Z,100780.94
2022-09-07T05:57:58.571Z,100791.84
2022-09-07T06:00:26.384Z,100797.22
2022-09-07T06:02:54.367Z,100793.19
2022-09-07T06:05:22.244Z,100801.34
2022-09-07T06:07:50.241Z,100809.25
2022-09-07T06:13:10.246Z,100805.91
2022-09-07T06:15:40.928Z,100812.97
2022-09-07T06:18:39.242Z,100815.19
2022-09-07T06:21:14.975Z,100813.72
2022-09-07T06:24:03.554Z,100825.13
2022-09-07T06:26:38.873Z,100819.84
2022-09-07T06:29:35.240Z,100822.91
2022-09-07T06:35:01.972Z,100837.31
2022-09-07T06:37:29.846Z,100835.03
2022-09-07T06:39:57.742Z,100835.47
2022-09-07T06:42:26.995Z,100834.44
2022-09-07T06:44:55.380Z,100830.59
2022-09-07T06:47:23.203Z,100834.25
2022-09-07T06:49:53.668Z,100842.41
2022-09-07T06:52:22.046Z,100843.09
2022-09-07T06:54:59.607Z,100847.59
2022-09-07T06:57:29.193Z,100851.88
2022-09-07T06:59:57.132Z,100858.97
2022-09-07T07:02:24.936Z,100864.13
2022-09-07T07:04:52.734Z,100865.63
2022-09-07T07:07:20.521Z,100865.44
2022-09-07T07:09:50.927Z,100861.44
2022-09-07T07:14:46.827Z,100869.16
2022-09-07T07:17:14.677Z,100878.16
2022-09-07T07:19:42.429Z,100875.00
2022-09-07T07:22:29.593Z,100883.13
2022-09-07T07:24:58.011Z,100880.81
2022-09-07T07:27:25.875Z,100883.41
2022-09-07T07:29:55.208Z,100884.91
2022-09-07T07:32:22.977Z,100886.44
2022-09-07T07:34:50.845Z,100887.59
2022-09-07T07:37:18.745Z,100891.47
2022-09-07T07:42:35.580Z,100896.19
2022-09-07T07:47:52.712Z,100899.03
2022-09-07T07:50:35.786Z,100898.06
2022-09-07T07:55:53.350Z,100899.56
2022-09-07T07:58:21.400Z,100905.63
2022-09-07T08:00:54.858Z,100908.91
2022-09-07T08:03:23.708Z,100899.75
2022-09-07T08:05:51.518Z,100896.19
2022-09-07T08:08:19.232Z,100900.09
2022-09-07T08:10:47.869Z,100886.47
2022-09-07T08:13:15.872Z,100886.69
2022-09-07T08:15:46.224Z,100874.53
2022-09-07T08:18:16.472Z,100879.69
2022-09-07T08:20:44.490Z,100880.13
2022-09-07T08:23:12.241Z,100890.03
2022-09-07T08:25:40.119Z,100896.75
2022-09-07T08:28:08.234Z,100899.75
2022-09-07T08:30:39.760Z,100903.63
2022-09-07T08:33:07.496Z,100899.97
2022-09-07T08:35:36.486Z,100894.81
2022-09-07T08:38:04.144Z,100899.31
2022-09-07T08:40:34.513Z,100911.16
2022-09-07T08:43:12.935Z,100917.38
2022-09-07T08:45:44.053Z,100912.41
2022-09-07T08:48:14.311Z,100918.44
2022-09-07T08:50:47.107Z,100931.69
2022-09-07T08:53:17.858Z,100927.38
2022-09-07T08:55:48.183Z,100925.63
2022-09-07T08:58:45.172Z,100921.09
2022-09-07T09:04:19.834Z,100917.09
2022-09-07T09:06:54.357Z,100913.19
2022-09-07T09:09:26.948Z,100913.09
2022-09-07T09:12:01.738Z,100909.38
2022-09-07T09:14:31.998Z,100910.34
2022-09-07T09:17:08.973Z,100909.38
2022-09-07T09:19:47.071Z,100914.91
2022-09-07T09:22:18.698Z,100915.03
2022-09-07T09:24:48.114Z,100916.84
2022-09-07T09:27:16.691Z,100929.25
2022-09-07T09:29:44.554Z,100936.03
2022-09-07T09:32:37.696Z,100927.13
2022-09-07T09:35:13.575Z,100929.63
2022-09-07T09:37:43.267Z,100928.47
2022-09-07T09:40:21.454Z,100932.06
2022-09-07T09:42:49.275Z,100931.97
2022-09-07T09:45:20.664Z,100940.28
2022-09-07T09:47:50.952Z,100935.69
2022-09-07T09:53:25.432Z,100932.78
2022-09-07T09:55:54.412Z,100931.59
2022-09-07T10:01:24.468Z,100938.09
2022-09-07T10:06:22.184Z,100946.59
2022-09-07T10:08:56.278Z,100944.75
2022-09-07T10:14:28.835Z,100946.16
2022-09-07T10:16:57.016Z,100945.47
2022-09-07T10:19:26.577Z,100944.13
2022-09-07T10:21:56.711Z,100949.50
2022-09-07T10:24:26.914Z,100941.94
2022-09-07T10:26:54.958Z,100947.56
2022-09-07T10:29:30.500Z,100945.00
2022-09-07T10:32:05.568Z,100940.72
2022-09-07T10:34:37.888Z,100941.41
2022-09-07T10:37:06.838Z,100939.31
2022-09-07T10:39:37.672Z,100947.34
2022-09-07T10:42:10.874Z,100947.84
2022-09-07T10:44:50.022Z,100939.88
2022-09-07T10:47:26.271Z,100935.34
2022-09-07T10:52:51.266Z,100928.03
2022-09-07T10:55:26.309Z,100924.38
2022-09-07T10:58:00.112Z,100921.56
2022-09-07T11:00:31.944Z,100907.75
2022-09-07T11:06:06.612Z,100905.81
2022-09-07T11:14:21.444Z,100903.63
2022-09-07T11:16:52.953Z,100906.22
2022-09-07T11:19:38.716Z,100910.72
2022-09-07T11:22:20.058Z,100911.81
2022-09-07T11:27:44.095Z,100905.81
2022-09-07T11:30:18.720Z,100899.84
2022-09-07T11:32:52.288Z,100900.31
2022-09-07T11:35:22.089Z,100895.19
2022-09-07T11:37:55.452Z,100894.78
2022-09-07T11:40:26.417Z,100893.31
2022-09-07T11:42:59.757Z,100884.28
2022-09-07T11:45:31.668Z,100892.72
2022-09-07T11:48:02.499Z,100892.72
2022-09-07T11:50:33.625Z,100885.13
2022-09-07T11:53:06.100Z,100888.78
2022-09-07T11:55:37.950Z,100891.59
2022-09-07T11:58:21.254Z,100887.94
2022-09-07T12:00:53.972Z,100891.84
2022-09-07T12:03:31.693Z,100880.63
2022-09-07T12:06:21.022Z,100875.88
2022-09-07T12:08:58.603Z,100875.25
2022-09-07T12:11:33.364Z,100874.16
2022-09-07T12:14:10.530Z,100879.16
2022-09-07T12:16:46.883Z,100874.63
2022-09-07T12:19:19.426Z,100860.84
2022-09-07T12:21:51.317Z,100868.38
2022-09-07T12:24:40.078Z,100874.63
2022-09-07T12:27:10.125Z,100872.69
2022-09-07T12:29:45.202Z,100865.13
2022-09-07T12:35:01.221Z,100864.16
2022-09-07T12:37:46.589Z,100862.59
2022-09-07T12:40:33.316Z,100867.72
2022-09-07T12:43:15.887Z,100860.78
2022-09-07T12:45:52.935Z,100859.47
2022-09-07T12:48:30.553Z,100861.78
2022-09-07T12:51:07.214Z,100862.16
2022-09-07T12:53:37.077Z,100856.56
2022-09-07T12:56:22.828Z,100842.28
2022-09-07T12:58:56.973Z,100837.53
2022-09-07T13:01:34.867Z,100836.66
2022-09-07T13:04:29.748Z,100840.34
2022-09-07T13:07:09.195Z,100840.94
2022-09-07T13:09:39.132Z,100843.72
2022-09-07T13:15:32.744Z,100834.00
2022-09-07T13:18:03.424Z,100831.81
2022-09-07T13:20:37.571Z,100826.81
2022-09-07T13:23:27.332Z,100825.44
2022-09-07T13:25:56.459Z,100826.31
2022-09-07T13:28:38.190Z,100826.94
2022-09-07T13:31:09.082Z,100828.66
2022-09-07T13:33:48.463Z,100823.69
2022-09-07T13:36:19.309Z,100823.41
2022-09-07T13:38:47.495Z,100824.03
2022-09-07T13:41:17.870Z,100829.19
2022-09-07T13:43:47.589Z,100830.91
2022-09-07T13:46:19.194Z,100827.00
2022-09-07T13:48:50.764Z,100819.41
2022-09-07T13:51:22.181Z,100817.22
2022-09-07T13:54:00.848Z,100800.13
2022-09-07T13:56:38.348Z,100806.59
2022-09-07T13:59:13.376Z,100798.81
2022-09-07T14:01:44.482Z,100794.63
2022-09-07T14:04:21.809Z,100784.88
2022-09-07T14:06:49.595Z,100796.72
2022-09-07T14:09:18.005Z,100792.59
2022-09-07T14:11:46.942Z,100785.59
2022-09-07T14:14:19.383Z,100791.84
2022-09-07T14:16:48.707Z,100785.13
2022-09-07T14:19:20.738Z,100788.56
2022-09-07T14:21:55.303Z,100780.97
2022-09-07T14:24:27.864Z,100791.09
2022-09-07T14:26:55.694Z,100782.44
2022-09-07T14:29:24.456Z,100787.19
2022-09-07T14:31:52.455Z,100783.28
2022-09-07T14:34:24.127Z,100783.28
2022-09-07T14:36:52.272Z,100784.13
2022-09-07T14:39:22.056Z,100774.63
2022-09-07T14:41:49.991Z,100778.28
2022-09-07T14:44:43.032Z,100783.03
2022-09-07T14:47:21.877Z,100780.22
2022-09-07T14:49:53.074Z,100782.19
2022-09-07T14:52:22.779Z,100786.72
2022-09-07T14:54:52.322Z,100781.09
2022-09-07T14:57:30.317Z,100772.66
2022-09-07T14:59:58.901Z,100769.00
2022-09-07T15:02:28.360Z,100769.84
2022-09-07T15:05:14.753Z,100769.84
2022-09-07T15:07:46.763Z,100767.28
2022-09-07T15:10:15.199Z,100776.56
2022-09-07T15:12:43.799Z,100772.03
2022-09-07T15:15:12.732Z,100779.84
2022-09-07T15:17:43.965Z,100774.25
2022-09-07T15:20:30.714Z,100770.84
2022-09-07T15:23:00.007Z,100760.09
2022-09-07T15:25:27.737Z,100762.28
2022-09-07T15:27:55.485Z,100760.56
2022-09-07T15:30:23.088Z,100762.56
2022-09-07T15:32:50.851Z,100763.88
2022-09-07T15:35:18.539Z,100763.03
2022-09-07T15:38:02.882Z,100765.22
2022-09-07T15:40:37.710Z,100748.59
2022-09-07T15:43:19.414Z,100754.22
2022-09-07T15:45:48.698Z,100752.50
2022-09-07T15:48:17.263Z,100740.47
2022-09-07T15:50:45.162Z,100740.47
2022-09-07T15:56:03.228Z,100731.41
2022-09-07T15:58:31.167Z,100735.09
2022-09-07T16:03:51.503Z,100728.00
2022-09-07T16:06:21.798Z,100730.78
2022-09-07T16:08:51.405Z,100730.19
2022-09-07T16:11:23.895Z,100720.03
2022-09-07T16:13:55.873Z,100724.81
2022-09-07T16:17:25.443Z,100720.56
2022-09-07T16:19:13.681Z,100718.84
2022-09-07T16:21:41.575Z,100725.56
2022-09-07T16:24:09.818Z,100723.84
2022-09-07T16:26:38.881Z,100717.59
2022-09-07T16:29:06.473Z,100723.69
2022-09-07T16:31:34.409Z,100723.06
2022-09-07T16:34:02.682Z,100722.47
2022-09-07T16:36:30.735Z,100725.78
2022-09-07T16:38:59.865Z,100711.34
2022-09-07T16:41:29.126Z,100710.75
2022-09-07T16:43:58.376Z,100701.97
2022-09-07T16:46:26.998Z,100698.53
2022-09-07T16:48:55.086Z,100707.44
2022-09-07T16:51:23.422Z,100707.09
2022-09-07T16:53:51.923Z,100710.13
2022-09-07T16:56:20.416Z,100720.09
2022-09-07T16:58:48.998Z,100708.53
2022-09-07T17:01:19.174Z,100708.78
2022-09-07T17:03:46.973Z,100709.25
2022-09-07T17:06:15.678Z,100706.94
2022-09-07T17:08:43.929Z,100703.50
2022-09-07T17:11:13.723Z,100705.69
2022-09-07T17:13:41.894Z,100706.19
2022-09-07T17:16:10.604Z,100710.34
2022-09-07T17:21:29.238Z,100713.81
2022-09-07T17:23:56.845Z,100718.81
2022-09-07T17:26:26.912Z,100711.97
2022-09-07T17:28:56.651Z,100711.34
2022-09-07T17:34:18.050Z,100705.84
2022-09-07T17:36:45.603Z,100699.88
2022-09-07T17:39:16.386Z,100696.69
2022-09-07T17:41:45.138Z,100690.72
2022-09-07T17:44:12.647Z,100682.16
2022-09-07T17:46:40.252Z,100682.88
2022-09-07T17:49:08.777Z,100681.63
2022-09-07T17:51:37.885Z,100682.38
2022-09-07T17:54:10.052Z,100676.59
2022-09-07T17:56:39.014Z,100670.00
2022-09-07T18:01:54.748Z,100673.34
2022-09-07T18:04:22.985Z,100676.00
2022-09-07T18:06:52.187Z,100675.03
2022-09-07T18:09:20.377Z,100674.00
2022-09-07T18:11:49.299Z,100675.81
2022-09-07T18:14:17.573Z,100668.34
2022-09-07T18:16:49.201Z,100675.97
2022-09-07T18:19:18.331Z,100676.03
2022-09-07T18:21:48.026Z,100668.59
2022-09-07T18:24:18.283Z,100673.38
2022-09-07T18:26:53.788Z,100672.59
2022-09-07T18:29:33.473Z,100677.16
2022-09-07T18:32:04.608Z,100689.06
2022-09-07T18:34:33.372Z,100685.28
2022-09-07T18:37:01.177Z,100686.81
2022-09-07T18:39:31.380Z,100690.31
2022-09-07T18:41:59.095Z,100692.94
2022-09-07T18:47:21.700Z,100689.19
2022-09-07T18:49:51.191Z,100692.63
2022-09-07T18:55:09.831Z,100683.72
2022-09-07T18:57:37.546Z,100689.38
2022-09-07T19:00:05.879Z,100677.19
2022-09-07T19:02:33.642Z,100681.13
2022-09-07T19:07:49.151Z,100684.00
2022-09-07T19:10:18.569Z,100680.16
2022-09-07T19:12:46.585Z,100683.59
2022-09-07T19:15:14.305Z,100676.75
2022-09-07T19:17:42.025Z,100671.81
2022-09-07T19:20:10.264Z,100669.50
2022-09-07T19:22:38.096Z,100668.22
2022-09-07T19:25:06.092Z,100668.06
2022-09-07T19:27:35.186Z,100668.72
2022-09-07T19:30:03.018Z,100659.94
2022-09-07T19:32:30.916Z,100665.09
2022-09-07T19:34:58.544Z,100666.44
2022-09-07T19:37:27.561Z,100671.81
2022-09-07T19:39:56.093Z,100672.28
2022-09-07T19:42:24.190Z,100674.66
2022-09-07T19:44:54.088Z,100666.69
2022-09-07T19:47:22.044Z,100665.44
2022-09-07T19:49:49.639Z,100665.88
2022-09-07T19:52:17.254Z,100663.53
2022-09-07T19:54:45.662Z,100656.44
2022-09-07T19:57:13.377Z,100652.16
2022-09-07T19:59:40.963Z,100647.88
2022-09-07T20:02:11.127Z,100638.00
2022-09-07T20:04:38.739Z,100639.31
2022-09-07T20:07:06.609Z,100637.81
2022-09-07T20:09:34.345Z,100639.13
2022-09-07T20:12:03.729Z,100637.63
2022-09-07T20:14:31.344Z,100632.50
2022-09-07T20:16:59.245Z,100632.94
2022-09-07T20:19:28.186Z,100626.06
2022-09-07T20:21:56.121Z,100624.59
2022-09-07T20:24:23.883Z,100616.88
2022-09-07T20:26:51.732Z,100626.75
2022-09-07T20:29:28.114Z,100611.53
2022-09-07T20:31:56.788Z,100610.28
2022-09-07T20:34:24.438Z,100602.34
2022-09-07T20:36:53.444Z,100594.63
2022-09-07T20:39:21.731Z,100592.50
2022-09-07T20:41:49.415Z,100588.41
2022-09-07T20:44:17.175Z,100593.56
2022-09-07T20:46:44.962Z,100592.28
2022-09-07T20:49:12.605Z,100595.50
2022-09-07T20:51:40.332Z,100599.78
2022-09-07T20:54:10.114Z,100595.53
2022-09-07T20:56:37.759Z,100597.88
2022-09-07T20:59:05.390Z,100594.91
2022-09-07T21:01:35.064Z,100603.69
2022-09-07T21:04:03.130Z,100599.66
2022-09-07T21:06:31.923Z,100603.72
2022-09-07T21:08:59.750Z,100603.06
2022-09-07T21:11:30.226Z,100599.88
2022-09-07T21:13:58.535Z,100592.78
2022-09-07T21:16:26.573Z,100589.34
2022-09-07T21:18:55.463Z,100579.53
2022-09-07T21:21:24.033Z,100588.28
2022-09-07T21:23:55.631Z,100583.13
2022-09-07T21:26:23.809Z,100582.72
2022-09-07T21:28:57.019Z,100581.41
2022-09-07T21:31:24.761Z,100584.84
2022-09-07T21:33:54.424Z,100577.97
2022-09-07T21:36:22.300Z,100586.13
2022-09-07T21:38:50.151Z,100583.97
2022-09-07T21:41:18.890Z,100586.56
2022-09-07T21:43:46.853Z,100577.13
2022-09-07T21:46:17.159Z,100575.84
2022-09-07T21:48:45.689Z,100571.78
2022-09-07T21:51:13.524Z,100566.84
2022-09-07T21:53:41.188Z,100571.13
2022-09-07T21:56:10.715Z,100560.59
2022-09-07T21:58:39.810Z,100554.84
2022-09-07T22:01:11.722Z,100560.19
2022-09-07T22:03:41.116Z,100570.00
2022-09-07T22:06:08.718Z,100564.84
2022-09-07T22:08:36.782Z,100558.84
2022-09-07T22:11:05.294Z,100564.63
2022-09-07T22:13:33.186Z,100565.88
2022-09-07T22:16:01.000Z,100557.97
2022-09-07T22:18:30.281Z,100563.75
2022-09-07T22:21:07.193Z,100568.66
2022-09-07T22:23:35.426Z,100568.66
2022-09-07T22:26:03.055Z,100564.38
2022-09-07T22:28:30.745Z,100574.63
2022-09-07T22:31:08.504Z,100565.47
2022-09-07T22:33:36.262Z,100569.31
2022-09-07T22:36:15.540Z,100566.72
2022-09-07T22:38:43.883Z,100571.44
2022-09-07T22:41:12.561Z,100570.78
2022-09-07T22:43:40.715Z,100571.63
2022-09-07T22:46:08.451Z,100564.56
2022-09-07T22:48:36.450Z,100561.16
2022-09-07T22:51:05.002Z,100551.28
2022-09-07T22:53:35.467Z,100554.06
2022-09-07T22:56:06.237Z,100552.56
2022-09-07T22:58:34.186Z,100548.06
2022-09-07T23:01:01.875Z,100547.44
2022-09-07T23:03:30.469Z,100546.78
2022-09-07T23:05:58.456Z,100547.84
2022-09-07T23:08:26.143Z,100547.19
2022-09-07T23:10:55.064Z,100535.41
2022-09-07T23:13:22.691Z,100539.28
2022-09-07T23:15:50.726Z,100539.47
2022-09-07T23:18:19.840Z,100541.59
2022-09-07T23:20:47.560Z,100527.91
2022-09-07T23:23:15.504Z,100521.69
2022-09-07T23:25:43.581Z,100518.09
2022-09-07T23:28:13.339Z,100511.84
2022-09-07T23:30:41.197Z,100506.50
2022-09-07T23:33:09.074Z,100509.28
2022-09-07T23:35:36.697Z,100497.72
2022-09-07T23:38:04.578Z,100495.38
2022-09-07T23:40:34.295Z,100497.47
2022-09-07T23:43:02.001Z,100485.69
2022-09-07T23:45:31.439Z,100491.44
2022-09-07T23:47:59.104Z,100485.47
2022-09-07T23:50:27.074Z,100477.53
2022-09-07T23:52:54.684Z,100467.91
2022-09-07T23:55:22.510Z,100471.09
2022-09-07T23:57:50.135Z,100466.78
